sensor_id;sensor_type;location;lat;lon;timestamp;temperature;humidity
55331;DHT22;58851;42.984;20.336;2024-01-10T00:02:01;39.10;6451.20
55331;DHT22;58851;42.984;20.336;2024-01-10T00:04:27;39.10;6451.20
55331;DHT22;58851;42.984;20.336;2024-01-10T00:06:52;39.20;6451.20
55331;DHT22;58851;42.984;20.336;2024-01-10T00:09:18;39.20;6451.20
55331;DHT22;58851;42.984;20.336;2024-01-10T00:11:44;64.00;6451.20
55331;DHT22;58851;42.984;20.336;2024-01-10T00:14:10;64.00;6451.20
55331;DHT22;58851;42.984;20.336;2024-01-10T00:16:36;64.00;6451.20
55331;DHT22;58851;42.984;20.336;2024-01-10T00:19:02;64.10;6451.20
55331;DHT22;58851;42.984;20.336;2024-01-10T00:21:28;64.10;6451.20
55331;DHT22;58851;42.984;20.336;2024-01-10T00:23:54;64.00;6451.20
55331;DHT22;58851;42.984;20.336;2024-01-10T00:26:20;39.30;6451.20
55331;DHT22;58851;42.984;20.336;2024-01-10T00:28:46;39.30;6451.20
55331;DHT22;58851;42.984;20.336;2024-01-10T00:31:15;39.20;6451.20
55331;DHT22;58851;42.984;20.336;2024-01-10T00:33:40;39.30;6451.20
55331;DHT22;58851;42.984;20.336;2024-01-10T00:36:07;39.20;6451.20
55331;DHT22;58851;42.984;20.336;2024-01-10T00:38:33;39.20;6451.20
55331;DHT22;58851;42.984;20.336;2024-01-10T00:40:59;39.10;6451.20
55331;DHT22;58851;42.984;20.336;2024-01-10T00:43:25;39.10;6451.20
55331;DHT22;58851;42.984;20.336;2024-01-10T00:45:51;39.20;6451.20
55331;DHT22;58851;42.984;20.336;2024-01-10T00:48:17;39.20;6451.20
55331;DHT22;58851;42.984;20.336;2024-01-10T00:50:43;39.30;6451.20
55331;DHT22;58851;42.984;20.336;2024-01-10T00:53:12;39.20;6451.20
55331;DHT22;58851;42.984;20.336;2024-01-10T00:55:38;39.30;6451.20
55331;DHT22;58851;42.984;20.336;2024-01-10T00:58:04;39.30;6451.20
55331;DHT22;58851;42.984;20.336;2024-01-10T01:00:31;39.20;6451.20
55331;DHT22;58851;42.984;20.336;2024-01-10T01:02:57;39.30;6451.20
55331;DHT22;58851;42.984;20.336;2024-01-10T01:05:23;39.30;6451.20
55331;DHT22;58851;42.984;20.336;2024-01-10T01:07:48;64.00;6451.20
55331;DHT22;58851;42.984;20.336;2024-01-10T01:10:14;64.00;6451.20
55331;DHT22;58851;42.984;20.336;2024-01-10T01:12:40;64.00;6451.20
55331;DHT22;58851;42.984;20.336;2024-01-10T01:15:06;39.30;6451.20
55331;DHT22;58851;42.984;20.336;2024-01-10T01:17:33;39.30;6451.20
55331;DHT22;58851;42.984;20.336;2024-01-10T01:20:00;39.30;6451.20
55331;DHT22;58851;42.984;20.336;2024-01-10T01:22:26;39.30;6451.20
55331;DHT22;58851;42.984;20.336;2024-01-10T01:24:52;64.00;6451.20
55331;DHT22;58851;42.984;20.336;2024-01-10T01:27:17;64.20;6451.20
55331;DHT22;58851;42.984;20.336;2024-01-10T01:29:43;64.30;6451.20
55331;DHT22;58851;42.984;20.336;2024-01-10T01:32:09;64.10;6451.20
55331;DHT22;58851;42.984;20.336;2024-01-10T01:34:35;64.00;6451.20
55331;DHT22;58851;42.984;20.336;2024-01-10T01:37:00;64.00;6451.20
55331;DHT22;58851;42.984;20.336;2024-01-10T01:39:26;64.00;6451.20
55331;DHT22;58851;42.984;20.336;2024-01-10T01:41:53;64.00;6451.20
55331;DHT22;58851;42.984;20.336;2024-01-10T01:44:18;64.00;6451.20
55331;DHT22;58851;42.984;20.336;2024-01-10T01:46:46;64.20;6451.20
55331;DHT22;58851;42.984;20.336;2024-01-10T01:49:12;64.50;6451.20
55331;DHT22;58851;42.984;20.336;2024-01-10T01:51:39;64.50;6451.20
55331;DHT22;58851;42.984;20.336;2024-01-10T01:54:07;64.50;6451.20
55331;DHT22;58851;42.984;20.336;2024-01-10T01:56:37;64.50;6451.20
55331;DHT22;58851;42.984;20.336;2024-01-10T01:59:07;64.60;6451.20
55331;DHT22;58851;42.984;20.336;2024-01-10T02:01:34;64.70;6451.20
55331;DHT22;58851;42.984;20.336;2024-01-10T02:04:01;64.80;6451.20
55331;DHT22;58851;42.984;20.336;2024-01-10T02:06:29;64.70;6451.20
55331;DHT22;58851;42.984;20.336;2024-01-10T02:08:56;64.70;6451.20
55331;DHT22;58851;42.984;20.336;2024-01-10T02:11:23;64.60;6451.20
55331;DHT22;58851;42.984;20.336;2024-01-10T02:13:50;64.60;6451.20
55331;DHT22;58851;42.984;20.336;2024-01-10T02:16:17;64.50;6451.20
55331;DHT22;58851;42.984;20.336;2024-01-10T02:18:43;64.50;6451.20
55331;DHT22;58851;42.984;20.336;2024-01-10T02:21:09;64.40;6451.20
55331;DHT22;58851;42.984;20.336;2024-01-10T02:23:35;64.40;6451.20
55331;DHT22;58851;42.984;20.336;2024-01-10T02:26:01;64.40;6451.20
55331;DHT22;58851;42.984;20.336;2024-01-10T02:28:27;64.30;6451.20
55331;DHT22;58851;42.984;20.336;2024-01-10T02:30:54;64.40;6451.20
55331;DHT22;58851;42.984;20.336;2024-01-10T02:33:20;64.30;6451.20
55331;DHT22;58851;42.984;20.336;2024-01-10T02:35:46;64.30;6451.20
55331;DHT22;58851;42.984;20.336;2024-01-10T02:38:12;64.20;6451.20
55331;DHT22;58851;42.984;20.336;2024-01-10T02:40:38;64.20;6451.20
55331;DHT22;58851;42.984;20.336;2024-01-10T02:43:04;64.20;6451.20
55331;DHT22;58851;42.984;20.336;2024-01-10T02:45:29;64.30;6451.20
55331;DHT22;58851;42.984;20.336;2024-01-10T02:47:55;64.20;6451.20
55331;DHT22;58851;42.984;20.336;2024-01-10T02:50:21;64.20;6451.20
55331;DHT22;58851;42.984;20.336;2024-01-10T02:52:47;64.20;6451.20
55331;DHT22;58851;42.984;20.336;2024-01-10T02:55:12;64.20;6451.20
55331;DHT22;58851;42.984;20.336;2024-01-10T02:57:38;64.20;6451.20
55331;DHT22;58851;42.984;20.336;2024-01-10T03:00:04;64.30;6451.20
55331;DHT22;58851;42.984;20.336;2024-01-10T03:02:31;64.30;6451.20
55331;DHT22;58851;42.984;20.336;2024-01-10T03:04:57;64.30;6451.20
55331;DHT22;58851;42.984;20.336;2024-01-10T03:07:22;64.30;6451.20
55331;DHT22;58851;42.984;20.336;2024-01-10T03:09:50;64.30;6451.20
55331;DHT22;58851;42.984;20.336;2024-01-10T03:12:16;64.30;6451.20
55331;DHT22;58851;42.984;20.336;2024-01-10T03:14:42;64.10;6451.20
55331;DHT22;58851;42.984;20.336;2024-01-10T03:17:07;64.10;6451.20
55331;DHT22;58851;42.984;20.336;2024-01-10T03:19:33;64.10;6451.20
55331;DHT22;58851;42.984;20.336;2024-01-10T03:21:59;64.10;6451.20
55331;DHT22;58851;42.984;20.336;2024-01-10T03:24:25;64.20;6451.20
55331;DHT22;58851;42.984;20.336;2024-01-10T03:26:52;64.10;6451.20
55331;DHT22;58851;42.984;20.336;2024-01-10T03:29:18;64.20;6451.20
55331;DHT22;58851;42.984;20.336;2024-01-10T03:31:44;64.10;6451.20
55331;DHT22;58851;42.984;20.336;2024-01-10T03:34:10;64.10;6451.20
55331;DHT22;58851;42.984;20.336;2024-01-10T03:36:35;64.10;6451.20
55331;DHT22;58851;42.984;20.336;2024-01-10T03:39:01;64.10;6451.20
55331;DHT22;58851;42.984;20.336;2024-01-10T03:41:27;64.10;6451.20
55331;DHT22;58851;42.984;20.336;2024-01-10T03:43:53;64.10;6451.20
55331;DHT22;58851;42.984;20.336;2024-01-10T03:46:19;64.10;6451.20
55331;DHT22;58851;42.984;20.336;2024-01-10T03:48:45;64.10;6451.20
55331;DHT22;58851;42.984;20.336;2024-01-10T03:51:17;64.10;6451.20
55331;DHT22;58851;42.984;20.336;2024-01-10T03:53:45;64.20;6451.20
55331;DHT22;58851;42.984;20.336;2024-01-10T03:56:12;64.30;6451.20
55331;DHT22;58851;42.984;20.336;2024-01-10T03:58:38;64.30;6451.20
55331;DHT22;58851;42.984;20.336;2024-01-10T04:01:07;64.30;6451.20
55331;DHT22;58851;42.984;20.336;2024-01-10T04:03:33;64.20;6451.20
55331;DHT22;58851;42.984;20.336;2024-01-10T04:06:00;64.10;6451.20
55331;DHT22;58851;42.984;20.336;2024-01-10T04:08:26;64.10;6451.20
55331;DHT22;58851;42.984;20.336;2024-01-10T04:10:52;64.10;6451.20
55331;DHT22;58851;42.984;20.336;2024-01-10T04:13:18;64.00;6451.20
55331;DHT22;58851;42.984;20.336;2024-01-10T04:15:44;64.00;6451.20
55331;DHT22;58851;42.984;20.336;2024-01-10T04:18:09;64.20;6451.20
55331;DHT22;58851;42.984;20.336;2024-01-10T04:20:35;64.20;6451.20
55331;DHT22;58851;42.984;20.336;2024-01-10T04:23:01;64.40;6451.20
55331;DHT22;58851;42.984;20.336;2024-01-10T04:25:27;64.30;6451.20
55331;DHT22;58851;42.984;20.336;2024-01-10T04:27:53;64.20;6451.20
55331;DHT22;58851;42.984;20.336;2024-01-10T04:30:18;64.10;6451.20
55331;DHT22;58851;42.984;20.336;2024-01-10T04:32:44;64.00;6451.20
55331;DHT22;58851;42.984;20.336;2024-01-10T04:35:10;64.00;6451.20
55331;DHT22;58851;42.984;20.336;2024-01-10T04:37:36;64.00;6451.20
55331;DHT22;58851;42.984;20.336;2024-01-10T04:40:02;64.00;6451.20
55331;DHT22;58851;42.984;20.336;2024-01-10T04:42:30;39.30;6451.20
55331;DHT22;58851;42.984;20.336;2024-01-10T04:44:56;39.30;6451.20
55331;DHT22;58851;42.984;20.336;2024-01-10T04:47:21;39.30;6451.20
55331;DHT22;58851;42.984;20.336;2024-01-10T04:49:47;39.20;6451.20
55331;DHT22;58851;42.984;20.336;2024-01-10T04:52:13;39.20;6451.20
55331;DHT22;58851;42.984;20.336;2024-01-10T04:54:39;39.10;6451.20
55331;DHT22;58851;42.984;20.336;2024-01-10T04:57:05;39.10;6451.20
55331;DHT22;58851;42.984;20.336;2024-01-10T04:59:30;39.20;6451.20
55331;DHT22;58851;42.984;20.336;2024-01-10T05:01:56;39.10;6451.20
55331;DHT22;58851;42.984;20.336;2024-01-10T05:04:22;39.10;6451.20
55331;DHT22;58851;42.984;20.336;2024-01-10T05:06:48;39.10;6451.20
55331;DHT22;58851;42.984;20.336;2024-01-10T05:09:14;39.10;6451.20
55331;DHT22;58851;42.984;20.336;2024-01-10T05:11:40;39.00;6451.20
55331;DHT22;58851;42.984;20.336;2024-01-10T05:14:06;39.00;6451.20
55331;DHT22;58851;42.984;20.336;2024-01-10T05:16:32;39.00;6451.20
55331;DHT22;58851;42.984;20.336;2024-01-10T05:19:01;38.90;6451.20
55331;DHT22;58851;42.984;20.336;2024-01-10T05:21:30;38.90;6451.20
55331;DHT22;58851;42.984;20.336;2024-01-10T05:23:56;38.90;6451.20
55331;DHT22;58851;42.984;20.336;2024-01-10T05:26:21;38.90;6451.20
55331;DHT22;58851;42.984;20.336;2024-01-10T05:28:47;38.90;6451.20
55331;DHT22;58851;42.984;20.336;2024-01-10T05:31:13;38.90;6451.20
55331;DHT22;58851;42.984;20.336;2024-01-10T05:33:39;38.90;6451.20
55331;DHT22;58851;42.984;20.336;2024-01-10T05:36:05;38.90;6451.20
55331;DHT22;58851;42.984;20.336;2024-01-10T05:38:31;38.90;6451.20
55331;DHT22;58851;42.984;20.336;2024-01-10T05:40:57;38.90;6451.20
55331;DHT22;58851;42.984;20.336;2024-01-10T05:43:22;39.00;6451.20
55331;DHT22;58851;42.984;20.336;2024-01-10T05:45:49;39.10;6451.20
55331;DHT22;58851;42.984;20.336;2024-01-10T05:48:14;39.20;6451.20
55331;DHT22;58851;42.984;20.336;2024-01-10T05:50:42;39.20;6451.20
55331;DHT22;58851;42.984;20.336;2024-01-10T05:53:08;39.20;6451.20
55331;DHT22;58851;42.984;20.336;2024-01-10T05:55:35;39.10;6451.20
55331;DHT22;58851;42.984;20.336;2024-01-10T05:58:02;39.20;6451.20
55331;DHT22;58851;42.984;20.336;2024-01-10T06:00:28;39.30;6451.20
55331;DHT22;58851;42.984;20.336;2024-01-10T06:02:54;39.30;6451.20
55331;DHT22;58851;42.984;20.336;2024-01-10T06:05:19;39.30;6451.20
55331;DHT22;58851;42.984;20.336;2024-01-10T06:07:45;64.10;6451.20
55331;DHT22;58851;42.984;20.336;2024-01-10T06:10:11;64.10;6451.20
55331;DHT22;58851;42.984;20.336;2024-01-10T06:12:37;64.00;6451.20
55331;DHT22;58851;42.984;20.336;2024-01-10T06:15:04;64.00;6451.20
55331;DHT22;58851;42.984;20.336;2024-01-10T06:17:30;64.00;6451.20
55331;DHT22;58851;42.984;20.336;2024-01-10T06:19:57;39.30;6451.20
55331;DHT22;58851;42.984;20.336;2024-01-10T06:22:25;39.20;6451.20
55331;DHT22;58851;42.984;20.336;2024-01-10T06:24:52;39.20;6451.20
55331;DHT22;58851;42.984;20.336;2024-01-10T06:27:17;39.20;6451.20
55331;DHT22;58851;42.984;20.336;2024-01-10T06:29:44;39.10;6451.20
55331;DHT22;58851;42.984;20.336;2024-01-10T06:32:13;39.10;6451.20
55331;DHT22;58851;42.984;20.336;2024-01-10T06:34:40;39.00;6451.20
55331;DHT22;58851;42.984;20.336;2024-01-10T06:37:06;38.90;6451.20
55331;DHT22;58851;42.984;20.336;2024-01-10T06:39:33;38.90;6451.20
55331;DHT22;58851;42.984;20.336;2024-01-10T06:41:59;38.90;6451.20
55331;DHT22;58851;42.984;20.336;2024-01-10T06:44:24;39.00;6451.20
55331;DHT22;58851;42.984;20.336;2024-01-10T06:46:51;39.00;6451.20
55331;DHT22;58851;42.984;20.336;2024-01-10T06:49:17;39.00;6451.20
55331;DHT22;58851;42.984;20.336;2024-01-10T06:51:42;39.00;6451.20
55331;DHT22;58851;42.984;20.336;2024-01-10T06:54:08;39.00;6451.20
55331;DHT22;58851;42.984;20.336;2024-01-10T06:56:34;39.00;6451.20
55331;DHT22;58851;42.984;20.336;2024-01-10T06:59:01;39.00;6451.20
55331;DHT22;58851;42.984;20.336;2024-01-10T07:01:27;39.00;6451.20
55331;DHT22;58851;42.984;20.336;2024-01-10T07:03:54;39.00;6451.20
55331;DHT22;58851;42.984;20.336;2024-01-10T07:06:23;39.10;6451.20
55331;DHT22;58851;42.984;20.336;2024-01-10T07:08:50;39.00;6451.20
55331;DHT22;58851;42.984;20.336;2024-01-10T07:11:17;39.00;6451.20
55331;DHT22;58851;42.984;20.336;2024-01-10T07:13:43;39.00;6451.20
55331;DHT22;58851;42.984;20.336;2024-01-10T07:16:09;39.00;6451.20
55331;DHT22;58851;42.984;20.336;2024-01-10T07:18:35;39.10;6451.20
55331;DHT22;58851;42.984;20.336;2024-01-10T07:21:01;39.10;6451.20
55331;DHT22;58851;42.984;20.336;2024-01-10T07:23:27;39.00;6451.20
55331;DHT22;58851;42.984;20.336;2024-01-10T07:25:53;39.10;6451.20
55331;DHT22;58851;42.984;20.336;2024-01-10T07:28:19;39.00;6451.20
55331;DHT22;58851;42.984;20.336;2024-01-10T07:30:45;38.90;6451.20
55331;DHT22;58851;42.984;20.336;2024-01-10T07:33:12;38.80;6451.20
55331;DHT22;58851;42.984;20.336;2024-01-10T07:35:38;38.80;6451.20
55331;DHT22;58851;42.984;20.336;2024-01-10T07:38:05;38.80;6451.20
55331;DHT22;58851;42.984;20.336;2024-01-10T07:40:34;38.80;6451.20
55331;DHT22;58851;42.984;20.336;2024-01-10T07:43:00;38.80;6451.20
55331;DHT22;58851;42.984;20.336;2024-01-10T07:45:26;38.80;6451.20
55331;DHT22;58851;42.984;20.336;2024-01-10T07:47:52;39.00;6451.20
55331;DHT22;58851;42.984;20.336;2024-01-10T07:50:18;39.00;6451.20
55331;DHT22;58851;42.984;20.336;2024-01-10T07:52:45;38.90;6451.20
55331;DHT22;58851;42.984;20.336;2024-01-10T07:55:14;38.90;6451.20
55331;DHT22;58851;42.984;20.336;2024-01-10T07:57:40;39.00;6451.20
55331;DHT22;58851;42.984;20.336;2024-01-10T08:00:08;38.90;6451.20
55331;DHT22;58851;42.984;20.336;2024-01-10T08:02:38;38.80;6451.20
55331;DHT22;58851;42.984;20.336;2024-01-10T08:05:05;38.80;6451.20
55331;DHT22;58851;42.984;20.336;2024-01-10T08:07:31;38.80;6451.20
55331;DHT22;58851;42.984;20.336;2024-01-10T08:10:11;38.50;6451.20
55331;DHT22;58851;42.984;20.336;2024-01-10T08:12:39;38.40;6451.20
55331;DHT22;58851;42.984;20.336;2024-01-10T08:15:07;38.50;6451.20
55331;DHT22;58851;42.984;20.336;2024-01-10T08:17:33;38.50;6451.20
55331;DHT22;58851;42.984;20.336;2024-01-10T08:19:59;38.40;6451.20
55331;DHT22;58851;42.984;20.336;2024-01-10T08:22:26;13.70;6451.20
55331;DHT22;58851;42.984;20.336;2024-01-10T08:24:52;13.50;6451.20
55331;DHT22;58851;42.984;20.336;2024-01-10T08:27:18;13.40;6451.20
55331;DHT22;58851;42.984;20.336;2024-01-10T08:29:43;13.20;6451.20
55331;DHT22;58851;42.984;20.336;2024-01-10T08:32:10;13.00;6451.20
55331;DHT22;58851;42.984;20.336;2024-01-10T08:34:36;0.00;6451.20
55331;DHT22;58851;42.984;20.336;2024-01-10T08:37:02;0.20;6451.20
55331;DHT22;58851;42.984;20.336;2024-01-10T08:39:28;0.20;6451.20
55331;DHT22;58851;42.984;20.336;2024-01-10T08:41:56;13.00;6451.20
55331;DHT22;58851;42.984;20.336;2024-01-10T08:44:22;13.00;6451.20
55331;DHT22;58851;42.984;20.336;2024-01-10T08:46:48;13.00;6451.20
55331;DHT22;58851;42.984;20.336;2024-01-10T08:49:16;13.10;6451.20
55331;DHT22;58851;42.984;20.336;2024-01-10T08:51:42;13.10;6451.20
55331;DHT22;58851;42.984;20.336;2024-01-10T08:54:09;13.10;6451.20
55331;DHT22;58851;42.984;20.336;2024-01-10T08:56:35;13.10;6451.20
55331;DHT22;58851;42.984;20.336;2024-01-10T08:59:01;13.20;6451.20
55331;DHT22;58851;42.984;20.336;2024-01-10T09:01:27;13.20;6451.20
55331;DHT22;58851;42.984;20.336;2024-01-10T09:03:52;12.90;6451.20
55331;DHT22;58851;42.984;20.336;2024-01-10T09:06:18;0.10;6451.20
55331;DHT22;58851;42.984;20.336;2024-01-10T09:08:44;0.20;6451.20
55331;DHT22;58851;42.984;20.336;2024-01-10T09:11:10;0.30;6451.20
55331;DHT22;58851;42.984;20.336;2024-01-10T09:13:35;0.40;6451.20
55331;DHT22;58851;42.984;20.336;2024-01-10T09:16:04;0.30;6451.20
55331;DHT22;58851;42.984;20.336;2024-01-10T09:18:30;0.30;6451.20
55331;DHT22;58851;42.984;20.336;2024-01-10T09:20:55;0.30;6451.20
55331;DHT22;58851;42.984;20.336;2024-01-10T09:23:21;0.50;6451.20
55331;DHT22;58851;42.984;20.336;2024-01-10T09:25:47;0.70;6451.20
55331;DHT22;58851;42.984;20.336;2024-01-10T09:28:13;0.70;6451.20
55331;DHT22;58851;42.984;20.336;2024-01-10T09:30:39;0.50;6451.20
55331;DHT22;58851;42.984;20.336;2024-01-10T09:33:05;0.70;6451.20
55331;DHT22;58851;42.984;20.336;2024-01-10T09:35:31;0.90;6451.20
55331;DHT22;58851;42.984;20.336;2024-01-10T09:37:56;0.90;6451.20
55331;DHT22;58851;42.984;20.336;2024-01-10T09:40:22;0.80;6451.20
55331;DHT22;58851;42.984;20.336;2024-01-10T09:42:51;25.60;6451.20
55331;DHT22;58851;42.984;20.336;2024-01-10T09:45:18;25.60;6451.20
55331;DHT22;58851;42.984;20.336;2024-01-10T09:47:48;25.60;6451.20
55331;DHT22;58851;42.984;20.336;2024-01-10T09:50:15;25.70;6451.20
55331;DHT22;58851;42.984;20.336;2024-01-10T09:52:52;25.90;6451.20
55331;DHT22;58851;42.984;20.336;2024-01-10T09:55:22;26.00;6451.20
55331;DHT22;58851;42.984;20.336;2024-01-10T09:57:49;25.80;6451.20
55331;DHT22;58851;42.984;20.336;2024-01-10T10:00:16;0.90;6451.20
55331;DHT22;58851;42.984;20.336;2024-01-10T10:02:42;0.70;6451.20
55331;DHT22;58851;42.984;20.336;2024-01-10T10:05:18;0.80;6451.20
55331;DHT22;58851;42.984;20.336;2024-01-10T10:07:48;0.70;6451.20
55331;DHT22;58851;42.984;20.336;2024-01-10T10:10:15;0.80;6451.20
55331;DHT22;58851;42.984;20.336;2024-01-10T10:12:45;0.80;6451.20
55331;DHT22;58851;42.984;20.336;2024-01-10T10:15:21;0.90;6451.20
55331;DHT22;58851;42.984;20.336;2024-01-10T10:17:49;25.80;6451.20
55331;DHT22;58851;42.984;20.336;2024-01-10T10:20:22;25.60;6451.20
55331;DHT22;58851;42.984;20.336;2024-01-10T10:23:04;25.80;6451.20
55331;DHT22;58851;42.984;20.336;2024-01-10T10:25:34;25.90;6451.20
55331;DHT22;58851;42.984;20.336;2024-01-10T10:28:02;26.10;6451.20
55331;DHT22;58851;42.984;20.336;2024-01-10T10:30:28;25.90;6451.20
55331;DHT22;58851;42.984;20.336;2024-01-10T10:32:55;26.10;6451.20
55331;DHT22;58851;42.984;20.336;2024-01-10T10:35:22;26.30;6451.20
55331;DHT22;58851;42.984;20.336;2024-01-10T10:37:52;26.10;6451.20
55331;DHT22;58851;42.984;20.336;2024-01-10T10:40:19;26.00;6451.20
55331;DHT22;58851;42.984;20.336;2024-01-10T10:42:47;25.60;6451.20
55331;DHT22;58851;42.984;20.336;2024-01-10T10:45:17;0.80;6451.20
55331;DHT22;58851;42.984;20.336;2024-01-10T10:47:44;0.90;6451.20
55331;DHT22;58851;42.984;20.336;2024-01-10T10:50:22;0.90;6451.20
55331;DHT22;58851;42.984;20.336;2024-01-10T10:52:50;0.80;6451.20
55331;DHT22;58851;42.984;20.336;2024-01-10T10:55:17;25.60;6451.20
55331;DHT22;58851;42.984;20.336;2024-01-10T10:57:47;25.60;6451.20
55331;DHT22;58851;42.984;20.336;2024-01-10T11:00:20;25.60;6451.20
55331;DHT22;58851;42.984;20.336;2024-01-10T11:02:47;25.70;6451.20
55331;DHT22;58851;42.984;20.336;2024-01-10T11:05:15;25.70;6451.20
55331;DHT22;58851;42.984;20.336;2024-01-10T11:07:43;25.70;6451.20
55331;DHT22;58851;42.984;20.336;2024-01-10T11:10:28;25.80;6451.20
55331;DHT22;58851;42.984;20.336;2024-01-10T11:13:13;26.10;6451.20
55331;DHT22;58851;42.984;20.336;2024-01-10T11:18:54;26.50;6451.20
55331;DHT22;58851;42.984;20.336;2024-01-10T11:23:56;51.40;6476.80
55331;DHT22;58851;42.984;20.336;2024-01-10T11:26:23;51.50;6476.80
55331;DHT22;58851;42.984;20.336;2024-01-10T11:28:50;51.70;6476.80
55331;DHT22;58851;42.984;20.336;2024-01-10T11:31:18;51.60;6476.80
55331;DHT22;58851;42.984;20.336;2024-01-10T11:33:52;51.70;6476.80
55331;DHT22;58851;42.984;20.336;2024-01-10T11:36:19;51.40;6476.80
55331;DHT22;58851;42.984;20.336;2024-01-10T11:41:32;51.30;6476.80
55331;DHT22;58851;42.984;20.336;2024-01-10T11:46:45;51.20;6476.80
55331;DHT22;58851;42.984;20.336;2024-01-10T11:49:13;51.40;6476.80
55331;DHT22;58851;42.984;20.336;2024-01-10T11:51:56;51.60;6476.80
55331;DHT22;58851;42.984;20.336;2024-01-10T11:54:36;51.70;6476.80
55331;DHT22;58851;42.984;20.336;2024-01-10T12:30:28;51.40;6476.80
55331;DHT22;58851;42.984;20.336;2024-01-10T12:32:54;77.50;6476.80
55331;DHT22;58851;42.984;20.336;2024-01-10T12:35:20;77.50;6476.80
55331;DHT22;58851;42.984;20.336;2024-01-10T12:37:54;77.60;6476.80
55331;DHT22;58851;42.984;20.336;2024-01-10T12:40:23;77.70;6476.80
55331;DHT22;58851;42.984;20.336;2024-01-10T12:42:49;102.40;6476.80
55331;DHT22;58851;42.984;20.336;2024-01-10T12:45:26;102.40;6476.80
55331;DHT22;58851;42.984;20.336;2024-01-10T12:47:55;77.40;6476.80
55331;DHT22;58851;42.984;20.336;2024-01-10T12:50:22;77.50;6476.80
55331;DHT22;58851;42.984;20.336;2024-01-10T12:52:50;77.70;6476.80
55331;DHT22;58851;42.984;20.336;2024-01-10T12:55:16;102.60;6476.80
55331;DHT22;58851;42.984;20.336;2024-01-10T12:57:43;102.80;6476.80
55331;DHT22;58851;42.984;20.336;2024-01-10T13:00:09;103.20;6476.80
55331;DHT22;58851;42.984;20.336;2024-01-10T13:02:36;128.10;6502.40
55331;DHT22;58851;42.984;20.336;2024-01-10T13:05:06;128.10;6502.40
55331;DHT22;58851;42.984;20.336;2024-01-10T13:07:38;128.30;6502.40
55331;DHT22;58851;42.984;20.336;2024-01-10T13:10:04;128.00;6502.40
55331;DHT22;58851;42.984;20.336;2024-01-10T13:12:30;128.10;6502.40
55331;DHT22;58851;42.984;20.336;2024-01-10T13:14:56;128.50;6502.40
55331;DHT22;58851;42.984;20.336;2024-01-10T13:17:22;128.50;6502.40
55331;DHT22;58851;42.984;20.336;2024-01-10T13:19:47;128.60;6502.40
55331;DHT22;58851;42.984;20.336;2024-01-10T13:22:16;128.80;6502.40
55331;DHT22;58851;42.984;20.336;2024-01-10T13:24:47;128.40;6502.40
55331;DHT22;58851;42.984;20.336;2024-01-10T13:27:13;128.10;6502.40
55331;DHT22;58851;42.984;20.336;2024-01-10T13:29:39;128.00;6502.40
55331;DHT22;58851;42.984;20.336;2024-01-10T13:32:06;128.00;6502.40
55331;DHT22;58851;42.984;20.336;2024-01-10T13:34:33;128.00;6502.40
55331;DHT22;58851;42.984;20.336;2024-01-10T13:36:59;128.10;6502.40
55331;DHT22;58851;42.984;20.336;2024-01-10T13:39:25;128.80;6502.40
55331;DHT22;58851;42.984;20.336;2024-01-10T13:41:50;153.60;6502.40
55331;DHT22;58851;42.984;20.336;2024-01-10T13:44:17;154.00;6502.40
55331;DHT22;58851;42.984;20.336;2024-01-10T13:46:43;154.00;6502.40
55331;DHT22;58851;42.984;20.336;2024-01-10T13:49:09;153.90;6502.40
55331;DHT22;58851;42.984;20.336;2024-01-10T13:51:36;153.80;6502.40
55331;DHT22;58851;42.984;20.336;2024-01-10T13:54:02;153.70;6502.40
55331;DHT22;58851;42.984;20.336;2024-01-10T13:56:28;128.80;6502.40
55331;DHT22;58851;42.984;20.336;2024-01-10T13:58:55;128.90;6502.40
55331;DHT22;58851;42.984;20.336;2024-01-10T14:01:23;153.60;6502.40
55331;DHT22;58851;42.984;20.336;2024-01-10T14:03:49;153.70;6502.40
55331;DHT22;58851;42.984;20.336;2024-01-10T14:06:15;153.60;6502.40
55331;DHT22;58851;42.984;20.336;2024-01-10T14:08:42;153.60;6502.40
55331;DHT22;58851;42.984;20.336;2024-01-10T14:11:09;153.70;6502.40
55331;DHT22;58851;42.984;20.336;2024-01-10T14:13:36;153.60;6502.40
55331;DHT22;58851;42.984;20.336;2024-01-10T14:16:02;128.60;6502.40
55331;DHT22;58851;42.984;20.336;2024-01-10T14:18:28;128.30;6502.40
55331;DHT22;58851;42.984;20.336;2024-01-10T14:20:54;128.00;6502.40
55331;DHT22;58851;42.984;20.336;2024-01-10T14:23:20;103.10;6476.80
55331;DHT22;58851;42.984;20.336;2024-01-10T14:25:46;102.90;6476.80
55331;DHT22;58851;42.984;20.336;2024-01-10T14:28:11;102.60;6476.80
55331;DHT22;58851;42.984;20.336;2024-01-10T14:30:37;77.60;6476.80
55331;DHT22;58851;42.984;20.336;2024-01-10T14:33:04;77.40;6476.80
55331;DHT22;58851;42.984;20.336;2024-01-10T14:35:30;77.20;6476.80
55331;DHT22;58851;42.984;20.336;2024-01-10T14:37:56;77.00;6476.80
55331;DHT22;58851;42.984;20.336;2024-01-10T14:40:23;77.00;6476.80
55331;DHT22;58851;42.984;20.336;2024-01-10T14:42:50;76.90;6476.80
55331;DHT22;58851;42.984;20.336;2024-01-10T14:45:15;52.10;6476.80
55331;DHT22;58851;42.984;20.336;2024-01-10T14:47:41;52.10;6476.80
55331;DHT22;58851;42.984;20.336;2024-01-10T14:50:08;51.80;6476.80
55331;DHT22;58851;42.984;20.336;2024-01-10T14:52:34;51.70;6476.80
55331;DHT22;58851;42.984;20.336;2024-01-10T14:54:59;51.60;6476.80
55331;DHT22;58851;42.984;20.336;2024-01-10T14:57:26;51.50;6476.80
55331;DHT22;58851;42.984;20.336;2024-01-10T14:59:53;51.30;6476.80
55331;DHT22;58851;42.984;20.336;2024-01-10T15:02:19;51.40;6476.80
55331;DHT22;58851;42.984;20.336;2024-01-10T15:04:45;51.20;6476.80
55331;DHT22;58851;42.984;20.336;2024-01-10T15:07:11;26.50;6451.20
55331;DHT22;58851;42.984;20.336;2024-01-10T15:09:37;26.50;6451.20
55331;DHT22;58851;42.984;20.336;2024-01-10T15:12:06;26.30;6451.20
55331;DHT22;58851;42.984;20.336;2024-01-10T15:14:36;26.20;6451.20
55331;DHT22;58851;42.984;20.336;2024-01-10T15:17:04;26.00;6451.20
55331;DHT22;58851;42.984;20.336;2024-01-10T15:19:34;25.90;6451.20
55331;DHT22;58851;42.984;20.336;2024-01-10T15:22:00;25.90;6451.20
55331;DHT22;58851;42.984;20.336;2024-01-10T15:24:27;25.80;6451.20
55331;DHT22;58851;42.984;20.336;2024-01-10T15:26:53;25.80;6451.20
55331;DHT22;58851;42.984;20.336;2024-01-10T15:29:19;25.70;6451.20
55331;DHT22;58851;42.984;20.336;2024-01-10T15:31:45;25.60;6451.20